sensor_id;sensor_type;location;lat;lon;timestamp;P1;durP1;ratioP1;P2;durP2;ratioP2
22502;SDS011;11418;48.118;9.992;2022-10-19T00:00:43;18.20;;;11.20;;
22502;SDS011;11418;48.118;9.992;2022-10-19T00:04:43;19.20;;;11.57;;
22502;SDS011;11418;48.118;9.992;2022-10-19T00:08:44;17.13;;;11.63;;
22502;SDS011;11418;48.118;9.992;2022-10-19T00:12:44;21.73;;;12.05;;
22502;SDS011;11418;48.118;9.992;2022-10-19T00:16:45;23.80;;;13.00;;
22502;SDS011;11418;48.118;9.992;2022-10-19T00:20:47;18.35;;;10.82;;
22502;SDS011;11418;48.118;9.992;2022-10-19T00:24:48;21.73;;;11.55;;
22502;SDS011;11418;48.118;9.992;2022-10-19T00:28:48;22.50;;;12.93;;
22502;SDS011;11418;48.118;9.992;2022-10-19T00:32:49;21.15;;;12.13;;
22502;SDS011;11418;48.118;9.992;2022-10-19T00:36:49;26.88;;;12.75;;
22502;SDS011;11418;48.118;9.992;2022-10-19T00:40:50;22.10;;;13.82;;
22502;SDS011;11418;48.118;9.992;2022-10-19T00:48:52;32.38;;;13.60;;
22502;SDS011;11418;48.118;9.992;2022-10-19T00:52:56;26.40;;;13.05;;
22502;SDS011;11418;48.118;9.992;2022-10-19T00:56:56;27.95;;;14.18;;
22502;SDS011;11418;48.118;9.992;2022-10-19T01:00:59;20.98;;;12.00;;
22502;SDS011;11418;48.118;9.992;2022-10-19T01:05:02;28.08;;;11.70;;
22502;SDS011;11418;48.118;9.992;2022-10-19T01:09:04;21.15;;;12.15;;
22502;SDS011;11418;48.118;9.992;2022-10-19T01:17:37;25.15;;;11.95;;
22502;SDS011;11418;48.118;9.992;2022-10-19T01:21:58;27.27;;;13.52;;
22502;SDS011;11418;48.118;9.992;2022-10-19T01:30:39;58.72;;;16.20;;
22502;SDS011;11418;48.118;9.992;2022-10-19T01:34:46;35.28;;;15.40;;
22502;SDS011;11418;48.118;9.992;2022-10-19T01:39:02;46.78;;;16.60;;
22502;SDS011;11418;48.118;9.992;2022-10-19T01:43:20;31.30;;;15.35;;
22502;SDS011;11418;48.118;9.992;2022-10-19T01:47:26;28.10;;;13.95;;
22502;SDS011;11418;48.118;9.992;2022-10-19T01:51:33;26.50;;;13.18;;
22502;SDS011;11418;48.118;9.992;2022-10-19T01:55:39;41.00;;;13.95;;
22502;SDS011;11418;48.118;9.992;2022-10-19T01:59:42;37.97;;;11.35;;
22502;SDS011;11418;48.118;9.992;2022-10-19T02:03:44;15.55;;;9.75;;
22502;SDS011;11418;48.118;9.992;2022-10-19T02:07:47;21.83;;;9.95;;
22502;SDS011;11418;48.118;9.992;2022-10-19T02:11:53;33.47;;;11.15;;
22502;SDS011;11418;48.118;9.992;2022-10-19T02:15:57;30.15;;;11.25;;
22502;SDS011;11418;48.118;9.992;2022-10-19T02:20:00;41.63;;;12.02;;
22502;SDS011;11418;48.118;9.992;2022-10-19T02:24:01;69.10;;;16.55;;
22502;SDS011;11418;48.118;9.992;2022-10-19T02:28:02;79.25;;;17.05;;
22502;SDS011;11418;48.118;9.992;2022-10-19T02:32:03;70.85;;;16.65;;
22502;SDS011;11418;48.118;9.992;2022-10-19T02:36:05;53.85;;;15.40;;
22502;SDS011;11418;48.118;9.992;2022-10-19T02:40:06;122.55;;;14.95;;
22502;SDS011;11418;48.118;9.992;2022-10-19T02:44:09;170.25;;;14.13;;
22502;SDS011;11418;48.118;9.992;2022-10-19T02:48:25;35.80;;;10.70;;
22502;SDS011;11418;48.118;9.992;2022-10-19T02:52:28;48.85;;;11.80;;
22502;SDS011;11418;48.118;9.992;2022-10-19T02:56:29;50.53;;;12.48;;
22502;SDS011;11418;48.118;9.992;2022-10-19T03:00:30;78.07;;;11.52;;
22502;SDS011;11418;48.118;9.992;2022-10-19T03:04:30;49.53;;;8.52;;
22502;SDS011;11418;48.118;9.992;2022-10-19T03:08:31;72.30;;;9.20;;
22502;SDS011;11418;48.118;9.992;2022-10-19T03:12:31;44.97;;;9.50;;
22502;SDS011;11418;48.118;9.992;2022-10-19T03:16:32;39.38;;;10.52;;
22502;SDS011;11418;48.118;9.992;2022-10-19T03:20:32;53.70;;;11.02;;
22502;SDS011;11418;48.118;9.992;2022-10-19T03:24:33;18.20;;;10.68;;
22502;SDS011;11418;48.118;9.992;2022-10-19T03:28:34;24.67;;;10.93;;
22502;SDS011;11418;48.118;9.992;2022-10-19T03:32:34;75.28;;;10.43;;
22502;SDS011;11418;48.118;9.992;2022-10-19T03:36:36;25.63;;;9.43;;
22502;SDS011;11418;48.118;9.992;2022-10-19T03:40:37;41.20;;;12.52;;
22502;SDS011;11418;48.118;9.992;2022-10-19T03:44:38;31.08;;;12.25;;
22502;SDS011;11418;48.118;9.992;2022-10-19T03:48:39;71.10;;;13.63;;
22502;SDS011;11418;48.118;9.992;2022-10-19T03:52:39;43.55;;;11.90;;
22502;SDS011;11418;48.118;9.992;2022-10-19T03:56:40;65.50;;;13.70;;
22502;SDS011;11418;48.118;9.992;2022-10-19T04:00:41;143.43;;;16.13;;
22502;SDS011;11418;48.118;9.992;2022-10-19T04:04:42;70.75;;;14.20;;
22502;SDS011;11418;48.118;9.992;2022-10-19T04:08:42;93.90;;;15.10;;
22502;SDS011;11418;48.118;9.992;2022-10-19T04:12:43;75.68;;;16.20;;
22502;SDS011;11418;48.118;9.992;2022-10-19T04:16:44;61.67;;;16.95;;
22502;SDS011;11418;48.118;9.992;2022-10-19T04:20:44;227.90;;;17.63;;
22502;SDS011;11418;48.118;9.992;2022-10-19T04:24:45;36.92;;;12.43;;
22502;SDS011;11418;48.118;9.992;2022-10-19T04:28:46;112.18;;;13.93;;
22502;SDS011;11418;48.118;9.992;2022-10-19T04:32:46;65.22;;;14.80;;
22502;SDS011;11418;48.118;9.992;2022-10-19T04:36:47;85.07;;;14.50;;
22502;SDS011;11418;48.118;9.992;2022-10-19T04:40:47;83.05;;;16.60;;
22502;SDS011;11418;48.118;9.992;2022-10-19T04:44:48;75.63;;;16.23;;
22502;SDS011;11418;48.118;9.992;2022-10-19T04:48:49;84.07;;;15.38;;
22502;SDS011;11418;48.118;9.992;2022-10-19T04:52:50;102.20;;;15.32;;
22502;SDS011;11418;48.118;9.992;2022-10-19T04:56:50;77.60;;;15.50;;
22502;SDS011;11418;48.118;9.992;2022-10-19T05:00:52;44.58;;;12.68;;
22502;SDS011;11418;48.118;9.992;2022-10-19T05:04:53;113.20;;;14.15;;
22502;SDS011;11418;48.118;9.992;2022-10-19T05:08:54;194.93;;;18.33;;
22502;SDS011;11418;48.118;9.992;2022-10-19T05:12:54;169.10;;;19.50;;
22502;SDS011;11418;48.118;9.992;2022-10-19T05:16:55;156.75;;;18.85;;
22502;SDS011;11418;48.118;9.992;2022-10-19T05:21:03;271.80;;;22.25;;
22502;SDS011;11418;48.118;9.992;2022-10-19T05:25:06;166.97;;;18.73;;
22502;SDS011;11418;48.118;9.992;2022-10-19T05:29:09;251.63;;;19.65;;
22502;SDS011;11418;48.118;9.992;2022-10-19T05:33:11;125.05;;;17.42;;
22502;SDS011;11418;48.118;9.992;2022-10-19T05:37:11;107.20;;;16.40;;
22502;SDS011;11418;48.118;9.992;2022-10-19T05:41:12;107.53;;;17.92;;
22502;SDS011;11418;48.118;9.992;2022-10-19T05:45:13;339.27;;;21.33;;
22502;SDS011;11418;48.118;9.992;2022-10-19T05:49:14;106.63;;;16.20;;
22502;SDS011;11418;48.118;9.992;2022-10-19T05:53:16;106.75;;;19.70;;
22502;SDS011;11418;48.118;9.992;2022-10-19T05:57:17;82.15;;;17.63;;
22502;SDS011;11418;48.118;9.992;2022-10-19T06:01:18;84.85;;;17.00;;
22502;SDS011;11418;48.118;9.992;2022-10-19T06:05:18;74.75;;;17.05;;
22502;SDS011;11418;48.118;9.992;2022-10-19T06:09:19;78.22;;;18.70;;
22502;SDS011;11418;48.118;9.992;2022-10-19T06:13:20;70.57;;;18.23;;
22502;SDS011;11418;48.118;9.992;2022-10-19T06:17:20;68.28;;;17.42;;
22502;SDS011;11418;48.118;9.992;2022-10-19T06:21:22;73.90;;;17.55;;
22502;SDS011;11418;48.118;9.992;2022-10-19T06:25:24;67.50;;;16.67;;
22502;SDS011;11418;48.118;9.992;2022-10-19T06:29:24;70.72;;;16.33;;
22502;SDS011;11418;48.118;9.992;2022-10-19T06:33:26;72.15;;;17.17;;
22502;SDS011;11418;48.118;9.992;2022-10-19T06:37:27;60.70;;;16.52;;
22502;SDS011;11418;48.118;9.992;2022-10-19T06:41:28;59.67;;;16.25;;
22502;SDS011;11418;48.118;9.992;2022-10-19T06:45:30;76.10;;;16.17;;
22502;SDS011;11418;48.118;9.992;2022-10-19T06:49:30;50.83;;;15.82;;
22502;SDS011;11418;48.118;9.992;2022-10-19T06:53:35;54.00;;;15.50;;
22502;SDS011;11418;48.118;9.992;2022-10-19T06:57:36;48.60;;;15.73;;
22502;SDS011;11418;48.118;9.992;2022-10-19T07:01:36;46.33;;;16.20;;
22502;SDS011;11418;48.118;9.992;2022-10-19T07:05:37;44.97;;;17.00;;
22502;SDS011;11418;48.118;9.992;2022-10-19T07:09:37;35.97;;;13.70;;
22502;SDS011;11418;48.118;9.992;2022-10-19T07:13:38;48.53;;;16.33;;
22502;SDS011;11418;48.118;9.992;2022-10-19T07:17:38;51.05;;;17.40;;
22502;SDS011;11418;48.118;9.992;2022-10-19T07:21:39;55.60;;;17.35;;
22502;SDS011;11418;48.118;9.992;2022-10-19T07:25:40;40.78;;;16.45;;
22502;SDS011;11418;48.118;9.992;2022-10-19T07:29:41;48.08;;;17.25;;
22502;SDS011;11418;48.118;9.992;2022-10-19T07:33:41;42.92;;;16.65;;
22502;SDS011;11418;48.118;9.992;2022-10-19T07:37:42;45.17;;;17.02;;
22502;SDS011;11418;48.118;9.992;2022-10-19T07:41:43;42.00;;;15.23;;
22502;SDS011;11418;48.118;9.992;2022-10-19T07:45:44;44.25;;;16.77;;
22502;SDS011;11418;48.118;9.992;2022-10-19T07:49:44;45.33;;;16.67;;
22502;SDS011;11418;48.118;9.992;2022-10-19T07:53:45;41.97;;;16.65;;
22502;SDS011;11418;48.118;9.992;2022-10-19T07:57:46;39.33;;;15.88;;
22502;SDS011;11418;48.118;9.992;2022-10-19T08:01:47;40.03;;;15.35;;
22502;SDS011;11418;48.118;9.992;2022-10-19T08:05:49;36.13;;;15.20;;
22502;SDS011;11418;48.118;9.992;2022-10-19T08:09:49;37.25;;;15.07;;
22502;SDS011;11418;48.118;9.992;2022-10-19T08:13:50;34.50;;;14.32;;
22502;SDS011;11418;48.118;9.992;2022-10-19T08:17:51;34.35;;;15.80;;
22502;SDS011;11418;48.118;9.992;2022-10-19T08:21:51;34.10;;;15.00;;
22502;SDS011;11418;48.118;9.992;2022-10-19T08:25:56;37.83;;;15.65;;
22502;SDS011;11418;48.118;9.992;2022-10-19T08:29:57;32.83;;;15.48;;
22502;SDS011;11418;48.118;9.992;2022-10-19T08:33:58;35.03;;;15.73;;
22502;SDS011;11418;48.118;9.992;2022-10-19T08:37:59;31.85;;;15.18;;
22502;SDS011;11418;48.118;9.992;2022-10-19T08:46:04;40.13;;;16.77;;
22502;SDS011;11418;48.118;9.992;2022-10-19T08:50:20;38.30;;;16.55;;
22502;SDS011;11418;48.118;9.992;2022-10-19T08:54:23;39.47;;;17.65;;
22502;SDS011;11418;48.118;9.992;2022-10-19T09:02:57;31.27;;;15.65;;
22502;SDS011;11418;48.118;9.992;2022-10-19T09:11:24;36.47;;;17.00;;
22502;SDS011;11418;48.118;9.992;2022-10-19T09:15:42;39.72;;;18.50;;
22502;SDS011;11418;48.118;9.992;2022-10-19T09:19:45;34.63;;;17.85;;
22502;SDS011;11418;48.118;9.992;2022-10-19T09:28:05;34.08;;;17.20;;
22502;SDS011;11418;48.118;9.992;2022-10-19T09:32:44;34.87;;;18.47;;
22502;SDS011;11418;48.118;9.992;2022-10-19T09:36:49;30.23;;;16.73;;
22502;SDS011;11418;48.118;9.992;2022-10-19T09:40:52;30.42;;;16.50;;
22502;SDS011;11418;48.118;9.992;2022-10-19T09:44:55;28.88;;;17.05;;
22502;SDS011;11418;48.118;9.992;2022-10-19T09:48:58;28.70;;;15.80;;
22502;SDS011;11418;48.118;9.992;2022-10-19T09:53:03;25.92;;;15.43;;
22502;SDS011;11418;48.118;9.992;2022-10-19T09:57:04;27.65;;;15.98;;
22502;SDS011;11418;48.118;9.992;2022-10-19T10:01:05;28.98;;;16.00;;
22502;SDS011;11418;48.118;9.992;2022-10-19T10:05:06;30.75;;;16.00;;
22502;SDS011;11418;48.118;9.992;2022-10-19T10:09:16;26.25;;;15.23;;
22502;SDS011;11418;48.118;9.992;2022-10-19T10:13:19;25.98;;;15.10;;
22502;SDS011;11418;48.118;9.992;2022-10-19T10:17:26;26.45;;;15.98;;
22502;SDS011;11418;48.118;9.992;2022-10-19T10:21:33;26.88;;;15.75;;
22502;SDS011;11418;48.118;9.992;2022-10-19T10:25:53;26.40;;;14.70;;
22502;SDS011;11418;48.118;9.992;2022-10-19T10:29:55;22.80;;;14.60;;
22502;SDS011;11418;48.118;9.992;2022-10-19T10:34:00;21.75;;;14.73;;
22502;SDS011;11418;48.118;9.992;2022-10-19T10:38:15;23.40;;;14.70;;
22502;SDS011;11418;48.118;9.992;2022-10-19T10:42:19;21.67;;;12.13;;
22502;SDS011;11418;48.118;9.992;2022-10-19T10:46:28;27.42;;;14.23;;
22502;SDS011;11418;48.118;9.992;2022-10-19T10:50:33;22.45;;;15.07;;
22502;SDS011;11418;48.118;9.992;2022-10-19T10:54:35;19.20;;;13.70;;
22502;SDS011;11418;48.118;9.992;2022-10-19T10:58:44;23.35;;;14.25;;
22502;SDS011;11418;48.118;9.992;2022-10-19T11:02:55;23.35;;;14.27;;
22502;SDS011;11418;48.118;9.992;2022-10-19T11:07:15;20.05;;;14.05;;
22502;SDS011;11418;48.118;9.992;2022-10-19T11:11:33;19.98;;;13.30;;
22502;SDS011;11418;48.118;9.992;2022-10-19T11:15:37;17.75;;;12.18;;
22502;SDS011;11418;48.118;9.992;2022-10-19T11:19:56;17.33;;;12.27;;
22502;SDS011;11418;48.118;9.992;2022-10-19T11:24:04;18.13;;;12.57;;
22502;SDS011;11418;48.118;9.992;2022-10-19T11:42:02;18.83;;;10.52;;
22502;SDS011;11418;48.118;9.992;2022-10-19T11:54:42;15.50;;;9.52;;
22502;SDS011;11418;48.118;9.992;2022-10-19T12:03:22;11.75;;;8.63;;
22502;SDS011;11418;48.118;9.992;2022-10-19T12:16:10;14.63;;;9.63;;
22502;SDS011;11418;48.118;9.992;2022-10-19T12:20:35;14.02;;;9.07;;
22502;SDS011;11418;48.118;9.992;2022-10-19T12:24:34;14.43;;;8.60;;
22502;SDS011;11418;48.118;9.992;2022-10-19T12:28:36;9.98;;;8.13;;
22502;SDS011;11418;48.118;9.992;2022-10-19T12:32:54;13.55;;;8.70;;
22502;SDS011;11418;48.118;9.992;2022-10-19T12:37:07;13.77;;;8.98;;
22502;SDS011;11418;48.118;9.992;2022-10-19T12:41:30;12.70;;;8.38;;
22502;SDS011;11418;48.118;9.992;2022-10-19T12:45:58;10.90;;;8.20;;
22502;SDS011;11418;48.118;9.992;2022-10-19T12:50:45;11.07;;;7.90;;
22502;SDS011;11418;48.118;9.992;2022-10-19T12:54:48;9.75;;;6.75;;
22502;SDS011;11418;48.118;9.992;2022-10-19T12:58:50;10.25;;;7.03;;
22502;SDS011;11418;48.118;9.992;2022-10-19T13:02:58;9.68;;;6.75;;
22502;SDS011;11418;48.118;9.992;2022-10-19T13:07:20;9.30;;;6.43;;
22502;SDS011;11418;48.118;9.992;2022-10-19T13:11:23;9.55;;;6.03;;
22502;SDS011;11418;48.118;9.992;2022-10-19T13:19:34;11.82;;;6.47;;
22502;SDS011;11418;48.118;9.992;2022-10-19T13:23:38;11.73;;;6.80;;
22502;SDS011;11418;48.118;9.992;2022-10-19T13:27:41;8.23;;;6.55;;
22502;SDS011;11418;48.118;9.992;2022-10-19T13:31:42;14.52;;;6.53;;
22502;SDS011;11418;48.118;9.992;2022-10-19T13:35:43;7.38;;;6.45;;
22502;SDS011;11418;48.118;9.992;2022-10-19T13:39:45;7.68;;;6.30;;
22502;SDS011;11418;48.118;9.992;2022-10-19T13:48:10;10.30;;;6.40;;
22502;SDS011;11418;48.118;9.992;2022-10-19T13:52:40;9.65;;;6.90;;
22502;SDS011;11418;48.118;9.992;2022-10-19T14:05:53;7.50;;;5.97;;
22502;SDS011;11418;48.118;9.992;2022-10-19T14:10:09;9.45;;;6.38;;
22502;SDS011;11418;48.118;9.992;2022-10-19T14:14:17;10.32;;;6.75;;
22502;SDS011;11418;48.118;9.992;2022-10-19T14:18:31;11.25;;;5.85;;
22502;SDS011;11418;48.118;9.992;2022-10-19T14:22:34;13.27;;;6.13;;
22502;SDS011;11418;48.118;9.992;2022-10-19T14:26:35;8.80;;;6.78;;
22502;SDS011;11418;48.118;9.992;2022-10-19T14:30:42;11.35;;;6.72;;
22502;SDS011;11418;48.118;9.992;2022-10-19T14:34:44;8.88;;;6.80;;
22502;SDS011;11418;48.118;9.992;2022-10-19T14:38:46;10.05;;;5.95;;
22502;SDS011;11418;48.118;9.992;2022-10-19T14:42:48;8.20;;;5.63;;
22502;SDS011;11418;48.118;9.992;2022-10-19T14:46:49;8.35;;;6.18;;
22502;SDS011;11418;48.118;9.992;2022-10-19T14:50:50;9.30;;;6.30;;
22502;SDS011;11418;48.118;9.992;2022-10-19T14:54:55;9.23;;;6.03;;
22502;SDS011;11418;48.118;9.992;2022-10-19T14:59:06;10.23;;;6.53;;
22502;SDS011;11418;48.118;9.992;2022-10-19T15:03:22;7.00;;;5.72;;
22502;SDS011;11418;48.118;9.992;2022-10-19T15:07:29;8.48;;;6.05;;
22502;SDS011;11418;48.118;9.992;2022-10-19T15:11:39;9.40;;;6.20;;
22502;SDS011;11418;48.118;9.992;2022-10-19T15:15:45;11.05;;;6.60;;
22502;SDS011;11418;48.118;9.992;2022-10-19T15:19:51;11.23;;;8.50;;
22502;SDS011;11418;48.118;9.992;2022-10-19T15:23:54;10.30;;;7.30;;
22502;SDS011;11418;48.118;9.992;2022-10-19T15:28:39;11.90;;;7.28;;
22502;SDS011;11418;48.118;9.992;2022-10-19T15:32:40;12.05;;;7.20;;
22502;SDS011;11418;48.118;9.992;2022-10-19T15:36:45;11.85;;;8.73;;
22502;SDS011;11418;48.118;9.992;2022-10-19T15:41:00;13.02;;;8.07;;
22502;SDS011;11418;48.118;9.992;2022-10-19T15:45:03;11.23;;;8.27;;
22502;SDS011;11418;48.118;9.992;2022-10-19T15:50:06;10.80;;;7.75;;
22502;SDS011;11418;48.118;9.992;2022-10-19T15:53:55;12.52;;;7.47;;
22502;SDS011;11418;48.118;9.992;2022-10-19T15:57:59;13.93;;;8.25;;
22502;SDS011;11418;48.118;9.992;2022-10-19T16:02:00;16.25;;;7.63;;
22502;SDS011;11418;48.118;9.992;2022-10-19T16:06:01;14.57;;;7.63;;
22502;SDS011;11418;48.118;9.992;2022-10-19T16:10:01;11.93;;;7.90;;
22502;SDS011;11418;48.118;9.992;2022-10-19T16:14:02;11.25;;;7.50;;
22502;SDS011;11418;48.118;9.992;2022-10-19T16:18:03;14.63;;;7.65;;
22502;SDS011;11418;48.118;9.992;2022-10-19T16:22:04;12.02;;;7.65;;
22502;SDS011;11418;48.118;9.992;2022-10-19T16:26:12;11.82;;;7.63;;
22502;SDS011;11418;48.118;9.992;2022-10-19T16:30:17;10.20;;;7.28;;
22502;SDS011;11418;48.118;9.992;2022-10-19T16:34:18;15.38;;;9.50;;
22502;SDS011;11418;48.118;9.992;2022-10-19T16:38:19;10.98;;;7.88;;
22502;SDS011;11418;48.118;9.992;2022-10-19T16:42:30;10.55;;;7.90;;
22502;SDS011;11418;48.118;9.992;2022-10-19T16:46:30;11.75;;;8.10;;
22502;SDS011;11418;48.118;9.992;2022-10-19T16:50:31;14.13;;;9.23;;
22502;SDS011;11418;48.118;9.992;2022-10-19T16:54:32;15.23;;;8.88;;
22502;SDS011;11418;48.118;9.992;2022-10-19T16:58:32;15.40;;;8.15;;
22502;SDS011;11418;48.118;9.992;2022-10-19T17:02:33;12.45;;;8.07;;
22502;SDS011;11418;48.118;9.992;2022-10-19T17:06:33;11.52;;;8.40;;
22502;SDS011;11418;48.118;9.992;2022-10-19T17:10:34;13.40;;;8.13;;
22502;SDS011;11418;48.118;9.992;2022-10-19T17:14:35;12.48;;;8.65;;
22502;SDS011;11418;48.118;9.992;2022-10-19T17:18:59;13.63;;;9.75;;
22502;SDS011;11418;48.118;9.992;2022-10-19T17:23:01;16.20;;;8.93;;
22502;SDS011;11418;48.118;9.992;2022-10-19T17:27:01;15.48;;;8.27;;
22502;SDS011;11418;48.118;9.992;2022-10-19T17:31:06;14.40;;;8.63;;
22502;SDS011;11418;48.118;9.992;2022-10-19T17:35:08;10.40;;;8.25;;
22502;SDS011;11418;48.118;9.992;2022-10-19T17:39:13;15.40;;;9.50;;
22502;SDS011;11418;48.118;9.992;2022-10-19T17:43:16;13.48;;;8.68;;
22502;SDS011;11418;48.118;9.992;2022-10-19T17:47:17;11.20;;;9.00;;
22502;SDS011;11418;48.118;9.992;2022-10-19T17:51:22;12.70;;;9.10;;
22502;SDS011;11418;48.118;9.992;2022-10-19T17:55:26;14.43;;;9.27;;
22502;SDS011;11418;48.118;9.992;2022-10-19T17:59:26;15.95;;;9.10;;
22502;SDS011;11418;48.118;9.992;2022-10-19T18:03:27;12.40;;;8.45;;
22502;SDS011;11418;48.118;9.992;2022-10-19T18:07:29;15.48;;;9.57;;
22502;SDS011;11418;48.118;9.992;2022-10-19T18:11:41;13.63;;;10.63;;
22502;SDS011;11418;48.118;9.992;2022-10-19T18:15:42;15.32;;;9.77;;
22502;SDS011;11418;48.118;9.992;2022-10-19T18:19:43;15.15;;;10.50;;
22502;SDS011;11418;48.118;9.992;2022-10-19T18:23:43;11.20;;;8.93;;
22502;SDS011;11418;48.118;9.992;2022-10-19T18:27:44;14.25;;;9.80;;
22502;SDS011;11418;48.118;9.992;2022-10-19T18:31:44;11.90;;;9.40;;
22502;SDS011;11418;48.118;9.992;2022-10-19T18:35:51;13.45;;;9.88;;
22502;SDS011;11418;48.118;9.992;2022-10-19T18:39:56;13.20;;;9.50;;
22502;SDS011;11418;48.118;9.992;2022-10-19T18:43:58;12.98;;;10.27;;
22502;SDS011;11418;48.118;9.992;2022-10-19T18:48:02;14.35;;;9.82;;
22502;SDS011;11418;48.118;9.992;2022-10-19T18:52:02;14.30;;;9.73;;
22502;SDS011;11418;48.118;9.992;2022-10-19T18:56:04;14.18;;;9.93;;
22502;SDS011;11418;48.118;9.992;2022-10-19T19:00:06;15.05;;;11.30;;
22502;SDS011;11418;48.118;9.992;2022-10-19T19:04:08;13.23;;;10.00;;
22502;SDS011;11418;48.118;9.992;2022-10-19T19:08:08;14.05;;;9.48;;
22502;SDS011;11418;48.118;9.992;2022-10-19T19:12:09;12.77;;;9.88;;
22502;SDS011;11418;48.118;9.992;2022-10-19T19:16:10;17.23;;;10.80;;
22502;SDS011;11418;48.118;9.992;2022-10-19T19:20:10;13.65;;;10.32;;
22502;SDS011;11418;48.118;9.992;2022-10-19T19:24:18;17.70;;;10.55;;
22502;SDS011;11418;48.118;9.992;2022-10-19T19:28:20;14.23;;;10.52;;
22502;SDS011;11418;48.118;9.992;2022-10-19T19:32:21;16.38;;;10.50;;
22502;SDS011;11418;48.118;9.992;2022-10-19T19:36:22;14.80;;;11.02;;
22502;SDS011;11418;48.118;9.992;2022-10-19T19:40:23;18.27;;;10.75;;
22502;SDS011;11418;48.118;9.992;2022-10-19T19:44:23;18.13;;;10.90;;
22502;SDS011;11418;48.118;9.992;2022-10-19T19:48:28;20.08;;;10.57;;
22502;SDS011;11418;48.118;9.992;2022-10-19T19:52:29;18.17;;;11.07;;
22502;SDS011;11418;48.118;9.992;2022-10-19T19:56:29;15.43;;;10.35;;
22502;SDS011;11418;48.118;9.992;2022-10-19T20:00:30;13.68;;;9.88;;
22502;SDS011;11418;48.118;9.992;2022-10-19T20:04:31;15.07;;;9.80;;
22502;SDS011;11418;48.118;9.992;2022-10-19T20:08:32;13.68;;;9.57;;
22502;SDS011;11418;48.118;9.992;2022-10-19T20:12:34;14.48;;;9.43;;
22502;SDS011;11418;48.118;9.992;2022-10-19T20:16:35;20.02;;;10.13;;
22502;SDS011;11418;48.118;9.992;2022-10-19T20:20:36;15.98;;;10.30;;
22502;SDS011;11418;48.118;9.992;2022-10-19T20:24:39;16.02;;;11.10;;
22502;SDS011;11418;48.118;9.992;2022-10-19T20:28:39;14.77;;;9.63;;
22502;SDS011;11418;48.118;9.992;2022-10-19T20:32:40;15.00;;;10.25;;
22502;SDS011;11418;48.118;9.992;2022-10-19T20:36:40;15.18;;;10.88;;
22502;SDS011;11418;48.118;9.992;2022-10-19T20:40:41;14.95;;;10.80;;
22502;SDS011;11418;48.118;9.992;2022-10-19T20:44:42;14.27;;;10.88;;
22502;SDS011;11418;48.118;9.992;2022-10-19T20:48:43;16.50;;;11.18;;
22502;SDS011;11418;48.118;9.992;2022-10-19T20:52:44;13.68;;;10.05;;
22502;SDS011;11418;48.118;9.992;2022-10-19T20:56:45;13.80;;;10.73;;
22502;SDS011;11418;48.118;9.992;2022-10-19T21:00:47;16.50;;;9.52;;
22502;SDS011;11418;48.118;9.992;2022-10-19T21:04:47;13.10;;;9.48;;
22502;SDS011;11418;48.118;9.992;2022-10-19T21:08:48;13.77;;;9.82;;
22502;SDS011;11418;48.118;9.992;2022-10-19T21:12:49;15.93;;;10.68;;
22502;SDS011;11418;48.118;9.992;2022-10-19T21:16:50;17.52;;;11.10;;
22502;SDS011;11418;48.118;9.992;2022-10-19T21:20:50;15.32;;;10.85;;
22502;SDS011;11418;48.118;9.992;2022-10-19T21:24:51;16.38;;;11.07;;
22502;SDS011;11418;48.118;9.992;2022-10-19T21:28:51;15.68;;;11.30;;
22502;SDS011;11418;48.118;9.992;2022-10-19T21:32:52;15.77;;;11.30;;
22502;SDS011;11418;48.118;9.992;2022-10-19T21:36:53;21.60;;;11.10;;
22502;SDS011;11418;48.118;9.992;2022-10-19T21:40:57;19.38;;;11.57;;
22502;SDS011;11418;48.118;9.992;2022-10-19T21:44:58;20.10;;;11.15;;
22502;SDS011;11418;48.118;9.992;2022-10-19T21:49:00;16.90;;;10.10;;
22502;SDS011;11418;48.118;9.992;2022-10-19T21:53:00;18.65;;;10.43;;
22502;SDS011;11418;48.118;9.992;2022-10-19T21:57:01;13.90;;;9.95;;
22502;SDS011;11418;48.118;9.992;2022-10-19T22:01:06;17.52;;;10.32;;
22502;SDS011;11418;48.118;9.992;2022-10-19T22:05:07;15.98;;;10.73;;
22502;SDS011;11418;48.118;9.992;2022-10-19T22:09:08;17.45;;;10.52;;
22502;SDS011;11418;48.118;9.992;2022-10-19T22:13:11;16.38;;;10.65;;
22502;SDS011;11418;48.118;9.992;2022-10-19T22:17:11;19.73;;;11.50;;
22502;SDS011;11418;48.118;9.992;2022-10-19T22:21:13;15.43;;;11.27;;
22502;SDS011;11418;48.118;9.992;2022-10-19T22:25:16;17.25;;;10.48;;
22502;SDS011;11418;48.118;9.992;2022-10-19T22:29:17;16.20;;;10.73;;
22502;SDS011;11418;48.118;9.992;2022-10-19T22:33:17;19.38;;;10.20;;
22502;SDS011;11418;48.118;9.992;2022-10-19T22:37:18;17.73;;;11.18;;
22502;SDS011;11418;48.118;9.992;2022-10-19T22:41:18;18.17;;;11.70;;
22502;SDS011;11418;48.118;9.992;2022-10-19T22:45:19;17.02;;;10.85;;
22502;SDS011;11418;48.118;9.992;2022-10-19T22:49:19;23.35;;;11.75;;
22502;SDS011;11418;48.118;9.992;2022-10-19T22:53:21;17.95;;;11.23;;
22502;SDS011;11418;48.118;9.992;2022-10-19T22:57:23;16.70;;;11.43;;
22502;SDS011;11418;48.118;9.992;2022-10-19T23:01:23;18.77;;;11.32;;
22502;SDS011;11418;48.118;9.992;2022-10-19T23:05:24;16.83;;;10.93;;
22502;SDS011;11418;48.118;9.992;2022-10-19T23:09:24;19.23;;;11.27;;
22502;SDS011;11418;48.118;9.992;2022-10-19T23:13:25;24.65;;;13.60;;
22502;SDS011;11418;48.118;9.992;2022-10-19T23:17:25;18.30;;;12.52;;
22502;SDS011;11418;48.118;9.992;2022-10-19T23:21:26;19.58;;;12.52;;
22502;SDS011;11418;48.118;9.992;2022-10-19T23:25:26;22.15;;;12.90;;
22502;SDS011;11418;48.118;9.992;2022-10-19T23:29:27;22.92;;;12.50;;
22502;SDS011;11418;48.118;9.992;2022-10-19T23:33:27;22.98;;;14.02;;
22502;SDS011;11418;48.118;9.992;2022-10-19T23:37:28;14.90;;;10.13;;
22502;SDS011;11418;48.118;9.992;2022-10-19T23:41:29;16.30;;;10.48;;
22502;SDS011;11418;48.118;9.992;2022-10-19T23:45:30;17.30;;;10.32;;
22502;SDS011;11418;48.118;9.992;2022-10-19T23:49:31;12.73;;;9.05;;
22502;SDS011;11418;48.118;9.992;2022-10-19T23:53:32;20.35;;;10.30;;
22502;SDS011;11418;48.118;9.992;2022-10-19T23:57:34;19.85;;;10.30;;
